createdAt,value
2023-04-12T00:00:01.209Z,1001
2023-04-12T00:05:01.208Z,1001
2023-04-12T00:10:01.154Z,1001
2023-04-12T00:15:01.177Z,1001
2023-04-12T00:20:01.168Z,1000
2023-04-12T00:25:01.161Z,1000
2023-04-12T00:30:01.171Z,1000
2023-04-12T00:35:01.162Z,1000
2023-04-12T00:40:01.126Z,1000
2023-04-12T00:45:01.183Z,1000
2023-04-12T00:50:01.158Z,1000
2023-04-12T00:55:01.130Z,1000
2023-04-12T01:00:01.183Z,1000
2023-04-12T01:05:01.204Z,1000
2023-04-12T01:10:01.142Z,1000
2023-04-12T01:15:01.141Z,1000
2023-04-12T01:20:01.175Z,1000
2023-04-12T01:25:01.146Z,999
2023-04-12T01:30:01.153Z,999
2023-04-12T01:35:01.161Z,999
2023-04-12T01:40:01.153Z,999
2023-04-12T01:45:01.161Z,999
2023-04-12T01:50:01.168Z,999
2023-04-12T01:55:01.198Z,999
2023-04-12T02:00:01.196Z,999
2023-04-12T02:05:01.205Z,999
2023-04-12T02:10:01.180Z,999
2023-04-12T02:15:01.134Z,999
2023-04-12T02:20:01.147Z,998
2023-04-12T02:25:01.153Z,998
2023-04-12T02:30:01.176Z,998
2023-04-12T02:35:01.150Z,998
2023-04-12T02:40:00.191Z,998
2023-04-12T02:45:01.185Z,998
2023-04-12T02:50:01.177Z,998
2023-04-12T02:55:01.133Z,998
2023-04-12T03:00:01.178Z,997
2023-04-12T03:05:01.209Z,997
2023-04-12T03:10:01.164Z,997
2023-04-12T03:15:01.176Z,997
2023-04-12T03:20:01.147Z,997
2023-04-12T03:25:01.198Z,997
2023-04-12T03:30:01.177Z,997
2023-04-12T03:35:01.167Z,997
2023-04-12T03:40:01.131Z,996
2023-04-12T03:45:01.169Z,996
2023-04-12T03:50:10.947Z,996
2023-04-12T03:55:01.163Z,996
2023-04-12T04:00:01.197Z,996
2023-04-12T04:05:01.193Z,996
2023-04-12T04:10:01.169Z,996
2023-04-12T04:15:01.169Z,996
2023-04-12T04:20:01.175Z,995
2023-04-12T04:25:01.165Z,995
2023-04-12T04:30:01.117Z,995
2023-04-12T04:35:01.154Z,995
2023-04-12T04:40:01.194Z,995
2023-04-12T04:45:01.158Z,995
2023-04-12T04:50:01.180Z,995
2023-04-12T04:55:02.422Z,995
2023-04-12T05:00:01.188Z,995
2023-04-12T05:05:01.179Z,995
2023-04-12T05:10:00.236Z,995
2023-04-12T05:20:01.136Z,994
2023-04-12T05:25:01.168Z,994
2023-04-12T05:30:01.233Z,994
2023-04-12T05:35:01.137Z,994
2023-04-12T05:40:01.159Z,994
2023-04-12T05:45:01.176Z,994
2023-04-12T05:50:01.196Z,994
2023-04-12T05:55:01.181Z,994
2023-04-12T06:00:01.181Z,994
2023-04-12T06:05:01.337Z,994
2023-04-12T06:10:01.148Z,994
2023-04-12T06:15:01.233Z,994
2023-04-12T06:20:01.230Z,994
2023-04-12T06:25:01.141Z,994
2023-04-12T06:30:01.228Z,994
2023-04-12T06:35:01.127Z,993
2023-04-12T06:40:01.161Z,993
2023-04-12T06:45:01.171Z,993
2023-04-12T06:50:01.190Z,993
2023-04-12T06:55:01.159Z,993
2023-04-12T07:00:05.166Z,993
2023-04-12T07:05:01.176Z,993
2023-04-12T07:10:01.165Z,993
2023-04-12T07:15:01.143Z,993
2023-04-12T07:30:00.584Z,993
2023-04-12T07:35:00.274Z,992
2023-04-12T07:40:00.398Z,992
2023-04-12T07:45:00.341Z,992
2023-04-12T07:50:00.634Z,992
2023-04-12T07:55:00.282Z,992
2023-04-12T08:00:00.303Z,992
2023-04-12T08:05:00.253Z,992
2023-04-12T08:10:00.214Z,992
2023-04-12T08:15:00.236Z,992
2023-04-12T08:20:00.272Z,992
2023-04-12T08:25:00.271Z,992
2023-04-12T08:30:00.263Z,992
2023-04-12T08:35:00.254Z,992
2023-04-12T08:40:00.241Z,992
2023-04-12T08:45:00.391Z,992
2023-04-12T08:50:00.269Z,992
2023-04-12T08:55:00.230Z,992
2023-04-12T09:00:00.317Z,992
2023-04-12T09:05:00.401Z,992
2023-04-12T09:10:00.274Z,991
2023-04-12T09:15:00.239Z,991
2023-04-12T09:20:00.208Z,991
2023-04-12T09:25:00.233Z,991
2023-04-12T09:30:00.378Z,991
2023-04-12T09:35:00.274Z,991
2023-04-12T09:40:00.283Z,991
2023-04-12T09:45:00.233Z,991
2023-04-12T09:50:00.293Z,991
2023-04-12T09:55:00.470Z,991
2023-04-12T10:00:00.323Z,991
2023-04-12T10:05:00.454Z,991
2023-04-12T10:10:00.306Z,991
2023-04-12T10:15:00.248Z,991
2023-04-12T10:20:00.272Z,991
2023-04-12T10:25:00.251Z,991
2023-04-12T10:30:00.307Z,991
2023-04-12T10:35:00.230Z,991
2023-04-12T10:40:00.275Z,991
2023-04-12T10:45:01.254Z,991
2023-04-12T10:50:00.320Z,991
2023-04-12T10:55:00.228Z,991
2023-04-12T11:00:00.306Z,991
2023-04-12T11:05:00.308Z,991
2023-04-12T11:10:00.275Z,991
2023-04-12T11:15:00.297Z,991
2023-04-12T11:20:00.319Z,991
2023-04-12T11:25:00.336Z,991
2023-04-12T11:30:00.681Z,991
2023-04-12T11:35:00.269Z,991
2023-04-12T11:40:00.284Z,991
2023-04-12T11:45:04.763Z,991
2023-04-12T11:50:00.285Z,991
2023-04-12T11:55:00.291Z,991
2023-04-12T12:00:05.234Z,991
2023-04-12T12:05:00.379Z,991
2023-04-12T12:10:00.275Z,991
2023-04-12T12:15:00.234Z,991
2023-04-12T12:20:00.441Z,991
2023-04-12T12:25:00.249Z,991
2023-04-12T12:30:00.304Z,991
2023-04-12T12:35:00.239Z,991
2023-04-12T12:40:00.261Z,991
2023-04-12T12:45:00.237Z,991
2023-04-12T12:50:00.293Z,991
2023-04-12T12:55:00.262Z,991
2023-04-12T13:00:00.259Z,991
2023-04-12T13:05:00.267Z,991
2023-04-12T13:10:00.693Z,991
2023-04-12T13:15:13.358Z,991
2023-04-12T13:20:00.279Z,991
2023-04-12T13:25:00.251Z,991
2023-04-12T13:30:00.554Z,991
2023-04-12T13:35:00.255Z,991
2023-04-12T13:40:00.344Z,991
2023-04-12T13:45:00.475Z,990
2023-04-12T13:50:00.293Z,990
2023-04-12T13:55:00.228Z,990
2023-04-12T14:00:00.281Z,990
2023-04-12T14:05:00.430Z,990
2023-04-12T14:10:00.275Z,990
2023-04-12T14:15:00.266Z,990
2023-04-12T14:20:00.325Z,990
2023-04-12T14:25:00.199Z,990
2023-04-12T14:30:00.319Z,990
2023-04-12T14:35:00.234Z,991
2023-04-12T14:40:00.286Z,991
2023-04-12T14:45:00.225Z,990
2023-04-12T14:50:00.281Z,991
2023-04-12T14:55:00.245Z,991
2023-04-12T15:00:00.330Z,991
2023-04-12T15:05:00.469Z,991
2023-04-12T15:10:00.281Z,991
2023-04-12T15:15:00.486Z,991
2023-04-12T15:20:00.375Z,992
2023-04-12T15:25:00.254Z,992
2023-04-12T15:30:00.482Z,992
2023-04-12T15:35:02.756Z,992
2023-04-12T15:40:00.322Z,992
2023-04-12T15:45:00.209Z,992
2023-04-12T15:50:00.277Z,992
2023-04-12T15:55:00.196Z,992
2023-04-12T16:00:00.334Z,992
2023-04-12T16:05:00.281Z,992
2023-04-12T16:10:00.240Z,992
2023-04-12T16:15:00.240Z,992
2023-04-12T16:20:00.305Z,992
2023-04-12T16:25:00.215Z,992
2023-04-12T16:30:00.314Z,992
2023-04-12T16:35:00.283Z,992
2023-04-12T16:40:00.326Z,992
2023-04-12T16:45:00.320Z,992
2023-04-12T16:50:00.292Z,992
2023-04-12T16:55:00.257Z,992
2023-04-12T17:00:05.144Z,992
2023-04-12T17:05:00.296Z,992
2023-04-12T17:10:00.305Z,992
2023-04-12T17:15:00.297Z,993
2023-04-12T17:20:00.295Z,993
2023-04-12T17:25:05.150Z,993
2023-04-12T17:30:00.311Z,993
2023-04-12T17:35:00.226Z,993
2023-04-12T17:40:00.319Z,993
2023-04-12T17:45:00.267Z,993
2023-04-12T17:50:00.306Z,992
2023-04-12T17:55:00.301Z,992
2023-04-12T18:00:00.332Z,993
2023-04-12T18:05:00.300Z,992
2023-04-12T18:10:00.340Z,992
2023-04-12T18:15:00.288Z,992
2023-04-12T18:20:02.567Z,992
2023-04-12T18:25:00.208Z,992
2023-04-12T18:30:00.345Z,992
2023-04-12T18:35:00.211Z,992
2023-04-12T18:40:00.291Z,993
2023-04-12T18:45:00.270Z,993
2023-04-12T18:50:00.321Z,993
2023-04-12T18:55:00.253Z,993
2023-04-12T19:00:00.356Z,993
2023-04-12T19:05:00.234Z,993
2023-04-12T19:10:00.328Z,993
2023-04-12T19:15:00.234Z,993
2023-04-12T19:20:00.304Z,993
2023-04-12T19:25:00.277Z,993
2023-04-12T19:30:00.316Z,993
2023-04-12T19:35:00.294Z,993
2023-04-12T19:40:00.315Z,993
2023-04-12T19:45:00.290Z,993
2023-04-12T19:50:00.349Z,993
2023-04-12T19:55:01.884Z,993
2023-04-12T20:00:05.328Z,993
2023-04-12T20:05:00.228Z,993
2023-04-12T20:10:00.299Z,993
2023-04-12T20:15:00.239Z,993
2023-04-12T20:20:00.295Z,993
2023-04-12T20:25:00.302Z,993
2023-04-12T20:30:00.307Z,993
2023-04-12T20:35:00.279Z,993
2023-04-12T20:40:00.306Z,993
2023-04-12T20:45:00.285Z,993
2023-04-12T20:50:00.357Z,993
2023-04-12T20:55:00.286Z,993
2023-04-12T21:00:00.268Z,993
2023-04-12T21:05:00.435Z,992
2023-04-12T21:10:00.263Z,992
2023-04-12T21:15:00.199Z,992
2023-04-12T21:20:00.285Z,992
2023-04-12T21:25:00.194Z,992
2023-04-12T21:30:00.266Z,992
2023-04-12T21:35:00.279Z,993
2023-04-12T21:40:00.182Z,992
2023-04-12T21:45:00.241Z,993
2023-04-12T21:50:00.234Z,992
2023-04-12T21:55:00.292Z,992
2023-04-12T22:00:00.356Z,992
2023-04-12T22:05:00.240Z,992
2023-04-12T22:10:00.256Z,992
2023-04-12T22:15:00.261Z,992
2023-04-12T22:20:00.272Z,992
2023-04-12T22:25:00.322Z,992
2023-04-12T22:30:00.236Z,992
2023-04-12T22:35:08.514Z,992
2023-04-12T22:40:00.387Z,992
2023-04-12T22:45:00.261Z,992
2023-04-12T22:50:00.178Z,992
2023-04-12T22:55:00.354Z,992
2023-04-12T23:00:00.286Z,992
2023-04-12T23:05:00.382Z,992
2023-04-12T23:10:00.243Z,992
2023-04-12T23:15:00.187Z,992
2023-04-12T23:20:00.213Z,992
2023-04-12T23:25:00.307Z,992
2023-04-12T23:30:00.229Z,992
2023-04-12T23:35:00.263Z,992
2023-04-12T23:40:00.267Z,991
2023-04-12T23:45:00.276Z,991
2023-04-12T23:50:00.282Z,991
2023-04-12T23:55:00.271Z,991
